sensor_id;sensor_type;location;lat;lon;timestamp;P1;durP1;ratioP1;P2;durP2;ratioP2
27666;SDS011;15074;50.940;5.282;2022-12-18T00:00:55;135.77;;;40.87;;
27666;SDS011;15074;50.940;5.282;2022-12-18T00:03:20;114.47;;;40.77;;
27666;SDS011;15074;50.940;5.282;2022-12-18T00:05:49;121.13;;;41.60;;
27666;SDS011;15074;50.940;5.282;2022-12-18T00:08:16;124.77;;;41.97;;
27666;SDS011;15074;50.940;5.282;2022-12-18T00:10:42;125.97;;;44.00;;
27666;SDS011;15074;50.940;5.282;2022-12-18T00:13:09;134.50;;;45.97;;
27666;SDS011;15074;50.940;5.282;2022-12-18T00:15:36;131.80;;;44.67;;
27666;SDS011;15074;50.940;5.282;2022-12-18T00:18:03;122.25;;;42.92;;
27666;SDS011;15074;50.940;5.282;2022-12-18T00:20:29;141.97;;;45.67;;
27666;SDS011;15074;50.940;5.282;2022-12-18T00:22:54;116.93;;;39.83;;
27666;SDS011;15074;50.940;5.282;2022-12-18T00:25:20;124.40;;;41.90;;
27666;SDS011;15074;50.940;5.282;2022-12-18T00:27:46;121.77;;;42.10;;
27666;SDS011;15074;50.940;5.282;2022-12-18T00:30:12;131.73;;;43.23;;
27666;SDS011;15074;50.940;5.282;2022-12-18T00:32:37;143.83;;;45.50;;
27666;SDS011;15074;50.940;5.282;2022-12-18T00:35:03;129.27;;;42.80;;
27666;SDS011;15074;50.940;5.282;2022-12-18T00:37:30;116.50;;;41.43;;
27666;SDS011;15074;50.940;5.282;2022-12-18T00:39:58;114.15;;;41.08;;
27666;SDS011;15074;50.940;5.282;2022-12-18T00:42:25;116.32;;;39.53;;
27666;SDS011;15074;50.940;5.282;2022-12-18T00:45:09;114.33;;;39.03;;
27666;SDS011;15074;50.940;5.282;2022-12-18T00:47:36;120.03;;;39.47;;
27666;SDS011;15074;50.940;5.282;2022-12-18T00:50:03;122.90;;;39.53;;
27666;SDS011;15074;50.940;5.282;2022-12-18T00:52:30;131.00;;;40.00;;
27666;SDS011;15074;50.940;5.282;2022-12-18T00:54:57;119.23;;;39.50;;
27666;SDS011;15074;50.940;5.282;2022-12-18T00:57:22;124.43;;;43.03;;
27666;SDS011;15074;50.940;5.282;2022-12-18T00:59:55;116.13;;;39.27;;
27666;SDS011;15074;50.940;5.282;2022-12-18T01:02:20;119.00;;;39.47;;
27666;SDS011;15074;50.940;5.282;2022-12-18T01:04:47;113.07;;;39.07;;
27666;SDS011;15074;50.940;5.282;2022-12-18T01:07:13;115.80;;;36.93;;
27666;SDS011;15074;50.940;5.282;2022-12-18T01:09:40;112.00;;;36.77;;
27666;SDS011;15074;50.940;5.282;2022-12-18T01:12:28;117.93;;;38.07;;
27666;SDS011;15074;50.940;5.282;2022-12-18T01:15:00;110.50;;;38.23;;
27666;SDS011;15074;50.940;5.282;2022-12-18T01:17:26;106.77;;;36.77;;
27666;SDS011;15074;50.940;5.282;2022-12-18T01:19:51;123.13;;;39.73;;
27666;SDS011;15074;50.940;5.282;2022-12-18T01:22:18;111.50;;;37.63;;
27666;SDS011;15074;50.940;5.282;2022-12-18T01:24:43;121.73;;;38.90;;
27666;SDS011;15074;50.940;5.282;2022-12-18T01:27:09;102.03;;;37.73;;
27666;SDS011;15074;50.940;5.282;2022-12-18T01:29:35;108.40;;;37.13;;
27666;SDS011;15074;50.940;5.282;2022-12-18T01:32:00;113.27;;;38.57;;
27666;SDS011;15074;50.940;5.282;2022-12-18T01:34:26;105.67;;;39.10;;
27666;SDS011;15074;50.940;5.282;2022-12-18T01:36:52;109.47;;;37.93;;
27666;SDS011;15074;50.940;5.282;2022-12-18T01:39:18;116.93;;;36.87;;
27666;SDS011;15074;50.940;5.282;2022-12-18T01:41:45;83.72;;;28.80;;
27666;SDS011;15074;50.940;5.282;2022-12-18T01:52:38;111.20;;;36.43;;
27666;SDS011;15074;50.940;5.282;2022-12-18T01:55:11;106.53;;;35.17;;
27666;SDS011;15074;50.940;5.282;2022-12-18T01:57:39;100.43;;;36.47;;
27666;SDS011;15074;50.940;5.282;2022-12-18T02:00:08;107.13;;;36.17;;
27666;SDS011;15074;50.940;5.282;2022-12-18T02:02:36;110.90;;;37.13;;
27666;SDS011;15074;50.940;5.282;2022-12-18T02:05:02;110.93;;;36.80;;
27666;SDS011;15074;50.940;5.282;2022-12-18T02:10:07;109.77;;;38.63;;
27666;SDS011;15074;50.940;5.282;2022-12-18T02:21:20;102.93;;;36.00;;
27666;SDS011;15074;50.940;5.282;2022-12-18T02:27:04;105.83;;;38.83;;
27666;SDS011;15074;50.940;5.282;2022-12-18T02:29:52;116.70;;;40.43;;
27666;SDS011;15074;50.940;5.282;2022-12-18T02:32:22;110.97;;;38.87;;
27666;SDS011;15074;50.940;5.282;2022-12-18T02:34:55;106.83;;;39.63;;
27666;SDS011;15074;50.940;5.282;2022-12-18T02:37:22;102.47;;;38.03;;
27666;SDS011;15074;50.940;5.282;2022-12-18T02:39:51;105.77;;;37.33;;
27666;SDS011;15074;50.940;5.282;2022-12-18T02:44:49;96.53;;;34.10;;
27666;SDS011;15074;50.940;5.282;2022-12-18T02:47:19;95.40;;;32.67;;
27666;SDS011;15074;50.940;5.282;2022-12-18T02:52:53;88.00;;;32.57;;
27666;SDS011;15074;50.940;5.282;2022-12-18T02:58:47;89.90;;;33.03;;
27666;SDS011;15074;50.940;5.282;2022-12-18T03:01:24;100.67;;;32.93;;
27666;SDS011;15074;50.940;5.282;2022-12-18T03:04:12;97.17;;;32.30;;
27666;SDS011;15074;50.940;5.282;2022-12-18T03:07:01;93.23;;;31.53;;
27666;SDS011;15074;50.940;5.282;2022-12-18T03:09:35;85.23;;;33.07;;
27666;SDS011;15074;50.940;5.282;2022-12-18T03:12:07;86.63;;;30.40;;
27666;SDS011;15074;50.940;5.282;2022-12-18T03:14:49;83.50;;;31.03;;
27666;SDS011;15074;50.940;5.282;2022-12-18T03:17:20;88.57;;;30.80;;
27666;SDS011;15074;50.940;5.282;2022-12-18T03:19:50;79.53;;;29.40;;
27666;SDS011;15074;50.940;5.282;2022-12-18T03:22:18;90.00;;;32.27;;
27666;SDS011;15074;50.940;5.282;2022-12-18T03:24:46;87.63;;;30.13;;
27666;SDS011;15074;50.940;5.282;2022-12-18T03:27:13;95.68;;;32.28;;
27666;SDS011;15074;50.940;5.282;2022-12-18T03:29:44;89.50;;;32.50;;
27666;SDS011;15074;50.940;5.282;2022-12-18T03:32:20;89.73;;;31.43;;
27666;SDS011;15074;50.940;5.282;2022-12-18T03:34:57;76.30;;;28.33;;
27666;SDS011;15074;50.940;5.282;2022-12-18T03:37:26;85.97;;;31.67;;
27666;SDS011;15074;50.940;5.282;2022-12-18T03:39:51;87.57;;;31.40;;
27666;SDS011;15074;50.940;5.282;2022-12-18T03:42:23;80.93;;;30.83;;
27666;SDS011;15074;50.940;5.282;2022-12-18T03:45:00;87.70;;;30.13;;
27666;SDS011;15074;50.940;5.282;2022-12-18T03:47:32;79.00;;;29.83;;
27666;SDS011;15074;50.940;5.282;2022-12-18T03:55:37;81.22;;;29.00;;
27666;SDS011;15074;50.940;5.282;2022-12-18T03:58:06;78.17;;;30.27;;
27666;SDS011;15074;50.940;5.282;2022-12-18T04:00:41;74.60;;;28.00;;
27666;SDS011;15074;50.940;5.282;2022-12-18T04:03:07;74.53;;;29.43;;
27666;SDS011;15074;50.940;5.282;2022-12-18T04:05:35;82.38;;;28.27;;
27666;SDS011;15074;50.940;5.282;2022-12-18T04:08:02;69.23;;;28.63;;
27666;SDS011;15074;50.940;5.282;2022-12-18T04:10:29;83.53;;;28.77;;
27666;SDS011;15074;50.940;5.282;2022-12-18T04:12:57;77.97;;;27.90;;
27666;SDS011;15074;50.940;5.282;2022-12-18T04:15:23;69.10;;;26.10;;
27666;SDS011;15074;50.940;5.282;2022-12-18T04:17:49;77.97;;;28.10;;
27666;SDS011;15074;50.940;5.282;2022-12-18T04:20:15;70.83;;;27.50;;
27666;SDS011;15074;50.940;5.282;2022-12-18T04:22:41;74.57;;;26.57;;
27666;SDS011;15074;50.940;5.282;2022-12-18T04:25:08;67.60;;;26.37;;
27666;SDS011;15074;50.940;5.282;2022-12-18T04:27:34;73.07;;;28.33;;
27666;SDS011;15074;50.940;5.282;2022-12-18T04:29:59;72.53;;;28.13;;
27666;SDS011;15074;50.940;5.282;2022-12-18T04:32:25;71.17;;;28.40;;
27666;SDS011;15074;50.940;5.282;2022-12-18T04:34:51;77.40;;;28.27;;
27666;SDS011;15074;50.940;5.282;2022-12-18T04:37:17;77.97;;;28.90;;
27666;SDS011;15074;50.940;5.282;2022-12-18T04:39:44;82.90;;;28.83;;
27666;SDS011;15074;50.940;5.282;2022-12-18T04:42:09;72.20;;;26.43;;
27666;SDS011;15074;50.940;5.282;2022-12-18T04:44:36;78.37;;;29.20;;
27666;SDS011;15074;50.940;5.282;2022-12-18T04:47:02;74.60;;;27.67;;
27666;SDS011;15074;50.940;5.282;2022-12-18T04:49:32;78.55;;;28.35;;
27666;SDS011;15074;50.940;5.282;2022-12-18T04:51:59;72.43;;;26.37;;
27666;SDS011;15074;50.940;5.282;2022-12-18T04:54:25;69.53;;;26.30;;
27666;SDS011;15074;50.940;5.282;2022-12-18T04:56:50;71.70;;;25.90;;
27666;SDS011;15074;50.940;5.282;2022-12-18T04:59:16;69.27;;;25.87;;
27666;SDS011;15074;50.940;5.282;2022-12-18T05:01:42;66.07;;;26.23;;
27666;SDS011;15074;50.940;5.282;2022-12-18T05:04:07;65.80;;;27.33;;
27666;SDS011;15074;50.940;5.282;2022-12-18T05:06:33;67.13;;;26.83;;
27666;SDS011;15074;50.940;5.282;2022-12-18T05:08:59;66.53;;;27.67;;
27666;SDS011;15074;50.940;5.282;2022-12-18T05:11:25;74.00;;;26.93;;
27666;SDS011;15074;50.940;5.282;2022-12-18T05:13:50;64.63;;;26.50;;
27666;SDS011;15074;50.940;5.282;2022-12-18T05:16:17;68.60;;;24.93;;
27666;SDS011;15074;50.940;5.282;2022-12-18T05:18:43;65.83;;;27.40;;
27666;SDS011;15074;50.940;5.282;2022-12-18T05:21:09;66.57;;;24.50;;
27666;SDS011;15074;50.940;5.282;2022-12-18T05:23:34;69.40;;;25.50;;
27666;SDS011;15074;50.940;5.282;2022-12-18T05:26:01;67.10;;;24.70;;
27666;SDS011;15074;50.940;5.282;2022-12-18T05:28:29;56.92;;;24.52;;
27666;SDS011;15074;50.940;5.282;2022-12-18T05:30:56;71.50;;;26.50;;
27666;SDS011;15074;50.940;5.282;2022-12-18T05:33:25;65.38;;;25.35;;
27666;SDS011;15074;50.940;5.282;2022-12-18T05:35:55;71.28;;;25.58;;
27666;SDS011;15074;50.940;5.282;2022-12-18T05:38:22;61.90;;;24.87;;
27666;SDS011;15074;50.940;5.282;2022-12-18T05:40:49;56.33;;;24.23;;
27666;SDS011;15074;50.940;5.282;2022-12-18T05:43:16;55.83;;;23.17;;
27666;SDS011;15074;50.940;5.282;2022-12-18T05:45:42;54.70;;;24.13;;
27666;SDS011;15074;50.940;5.282;2022-12-18T05:48:08;65.80;;;25.57;;
27666;SDS011;15074;50.940;5.282;2022-12-18T05:50:37;58.17;;;24.27;;
27666;SDS011;15074;50.940;5.282;2022-12-18T05:53:04;69.70;;;26.33;;
27666;SDS011;15074;50.940;5.282;2022-12-18T05:55:37;68.40;;;26.33;;
27666;SDS011;15074;50.940;5.282;2022-12-18T05:58:05;80.90;;;29.83;;
27666;SDS011;15074;50.940;5.282;2022-12-18T06:00:33;78.40;;;29.38;;
27666;SDS011;15074;50.940;5.282;2022-12-18T06:03:00;57.55;;;24.92;;
27666;SDS011;15074;50.940;5.282;2022-12-18T06:05:26;67.50;;;27.17;;
27666;SDS011;15074;50.940;5.282;2022-12-18T06:07:52;70.97;;;25.27;;
27666;SDS011;15074;50.940;5.282;2022-12-18T06:10:18;53.63;;;24.93;;
27666;SDS011;15074;50.940;5.282;2022-12-18T06:12:43;56.57;;;23.03;;
27666;SDS011;15074;50.940;5.282;2022-12-18T06:15:09;58.43;;;25.13;;
27666;SDS011;15074;50.940;5.282;2022-12-18T06:17:35;66.20;;;26.73;;
27666;SDS011;15074;50.940;5.282;2022-12-18T06:20:01;55.93;;;24.43;;
27666;SDS011;15074;50.940;5.282;2022-12-18T06:22:33;58.73;;;23.60;;
27666;SDS011;15074;50.940;5.282;2022-12-18T06:25:13;60.10;;;22.30;;
27666;SDS011;15074;50.940;5.282;2022-12-18T06:27:47;56.43;;;24.03;;
27666;SDS011;15074;50.940;5.282;2022-12-18T06:30:54;65.53;;;23.83;;
27666;SDS011;15074;50.940;5.282;2022-12-18T06:33:20;59.77;;;23.67;;
27666;SDS011;15074;50.940;5.282;2022-12-18T06:36:15;55.90;;;22.37;;
27666;SDS011;15074;50.940;5.282;2022-12-18T06:38:51;53.77;;;23.10;;
27666;SDS011;15074;50.940;5.282;2022-12-18T06:41:38;57.10;;;23.00;;
27666;SDS011;15074;50.940;5.282;2022-12-18T06:44:04;55.53;;;23.73;;
27666;SDS011;15074;50.940;5.282;2022-12-18T06:46:30;47.43;;;22.50;;
27666;SDS011;15074;50.940;5.282;2022-12-18T06:48:57;51.93;;;22.73;;
27666;SDS011;15074;50.940;5.282;2022-12-18T06:51:23;50.33;;;22.93;;
27666;SDS011;15074;50.940;5.282;2022-12-18T06:53:48;49.00;;;22.80;;
27666;SDS011;15074;50.940;5.282;2022-12-18T06:56:14;57.93;;;22.03;;
27666;SDS011;15074;50.940;5.282;2022-12-18T06:58:40;42.90;;;21.57;;
27666;SDS011;15074;50.940;5.282;2022-12-18T07:01:07;55.10;;;22.77;;
27666;SDS011;15074;50.940;5.282;2022-12-18T07:03:34;45.20;;;22.00;;
27666;SDS011;15074;50.940;5.282;2022-12-18T07:06:01;51.87;;;22.63;;
27666;SDS011;15074;50.940;5.282;2022-12-18T07:08:28;54.40;;;23.87;;
27666;SDS011;15074;50.940;5.282;2022-12-18T07:10:54;55.70;;;23.85;;
27666;SDS011;15074;50.940;5.282;2022-12-18T07:13:20;68.00;;;26.97;;
27666;SDS011;15074;50.940;5.282;2022-12-18T07:15:45;46.53;;;22.70;;
27666;SDS011;15074;50.940;5.282;2022-12-18T07:18:11;51.33;;;23.53;;
27666;SDS011;15074;50.940;5.282;2022-12-18T07:20:37;37.50;;;19.60;;
27666;SDS011;15074;50.940;5.282;2022-12-18T07:23:03;48.27;;;21.30;;
27666;SDS011;15074;50.940;5.282;2022-12-18T07:25:37;43.93;;;20.53;;
27666;SDS011;15074;50.940;5.282;2022-12-18T07:28:02;43.67;;;19.93;;
27666;SDS011;15074;50.940;5.282;2022-12-18T07:30:29;38.23;;;19.27;;
27666;SDS011;15074;50.940;5.282;2022-12-18T07:32:54;40.00;;;17.60;;
27666;SDS011;15074;50.940;5.282;2022-12-18T07:35:20;40.73;;;19.27;;
27666;SDS011;15074;50.940;5.282;2022-12-18T07:37:46;34.40;;;18.70;;
27666;SDS011;15074;50.940;5.282;2022-12-18T07:40:13;39.90;;;18.73;;
27666;SDS011;15074;50.940;5.282;2022-12-18T07:42:38;35.50;;;18.10;;
27666;SDS011;15074;50.940;5.282;2022-12-18T07:45:04;40.80;;;18.17;;
27666;SDS011;15074;50.940;5.282;2022-12-18T07:47:30;38.80;;;18.93;;
27666;SDS011;15074;50.940;5.282;2022-12-18T07:49:59;31.20;;;17.60;;
27666;SDS011;15074;50.940;5.282;2022-12-18T07:52:24;33.27;;;18.53;;
27666;SDS011;15074;50.940;5.282;2022-12-18T07:54:56;35.10;;;17.70;;
27666;SDS011;15074;50.940;5.282;2022-12-18T07:57:29;34.97;;;17.40;;
27666;SDS011;15074;50.940;5.282;2022-12-18T07:59:55;29.80;;;16.47;;
27666;SDS011;15074;50.940;5.282;2022-12-18T08:02:29;29.37;;;16.47;;
27666;SDS011;15074;50.940;5.282;2022-12-18T08:04:56;35.73;;;16.97;;
27666;SDS011;15074;50.940;5.282;2022-12-18T08:07:27;30.17;;;16.83;;
27666;SDS011;15074;50.940;5.282;2022-12-18T08:09:53;34.73;;;15.30;;
27666;SDS011;15074;50.940;5.282;2022-12-18T08:12:40;25.40;;;15.73;;
27666;SDS011;15074;50.940;5.282;2022-12-18T08:15:06;30.67;;;14.90;;
27666;SDS011;15074;50.940;5.282;2022-12-18T08:17:32;30.53;;;16.40;;
27666;SDS011;15074;50.940;5.282;2022-12-18T08:19:58;20.77;;;16.07;;
27666;SDS011;15074;50.940;5.282;2022-12-18T08:22:23;31.63;;;16.00;;
27666;SDS011;15074;50.940;5.282;2022-12-18T08:24:49;26.23;;;14.60;;
27666;SDS011;15074;50.940;5.282;2022-12-18T08:27:15;26.00;;;15.07;;
27666;SDS011;15074;50.940;5.282;2022-12-18T08:29:41;23.50;;;14.87;;
27666;SDS011;15074;50.940;5.282;2022-12-18T08:32:07;27.50;;;14.93;;
27666;SDS011;15074;50.940;5.282;2022-12-18T08:34:32;18.03;;;13.30;;
27666;SDS011;15074;50.940;5.282;2022-12-18T08:36:58;27.47;;;14.57;;
27666;SDS011;15074;50.940;5.282;2022-12-18T08:39:24;21.77;;;13.67;;
27666;SDS011;15074;50.940;5.282;2022-12-18T08:41:49;27.57;;;15.90;;
27666;SDS011;15074;50.940;5.282;2022-12-18T08:44:34;45.87;;;18.93;;
27666;SDS011;15074;50.940;5.282;2022-12-18T08:47:02;104.90;;;36.20;;
27666;SDS011;15074;50.940;5.282;2022-12-18T08:49:28;62.77;;;25.83;;
27666;SDS011;15074;50.940;5.282;2022-12-18T08:51:54;26.13;;;15.90;;
27666;SDS011;15074;50.940;5.282;2022-12-18T08:54:22;25.13;;;13.90;;
27666;SDS011;15074;50.940;5.282;2022-12-18T08:56:48;26.03;;;14.10;;
27666;SDS011;15074;50.940;5.282;2022-12-18T08:59:14;15.80;;;12.80;;
27666;SDS011;15074;50.940;5.282;2022-12-18T09:01:41;19.37;;;13.37;;
27666;SDS011;15074;50.940;5.282;2022-12-18T09:04:07;23.73;;;13.65;;
27666;SDS011;15074;50.940;5.282;2022-12-18T09:06:36;16.75;;;12.45;;
27666;SDS011;15074;50.940;5.282;2022-12-18T09:09:03;16.92;;;13.13;;
27666;SDS011;15074;50.940;5.282;2022-12-18T09:11:29;20.15;;;12.55;;
27666;SDS011;15074;50.940;5.282;2022-12-18T09:13:56;17.30;;;13.18;;
27666;SDS011;15074;50.940;5.282;2022-12-18T09:16:24;16.67;;;12.83;;
27666;SDS011;15074;50.940;5.282;2022-12-18T09:18:50;20.20;;;13.68;;
27666;SDS011;15074;50.940;5.282;2022-12-18T09:21:30;14.88;;;11.70;;
27666;SDS011;15074;50.940;5.282;2022-12-18T09:23:58;17.77;;;13.13;;
27666;SDS011;15074;50.940;5.282;2022-12-18T09:26:25;23.10;;;14.20;;
27666;SDS011;15074;50.940;5.282;2022-12-18T09:28:51;18.85;;;13.18;;
27666;SDS011;15074;50.940;5.282;2022-12-18T09:31:18;17.63;;;11.30;;
27666;SDS011;15074;50.940;5.282;2022-12-18T09:33:45;18.42;;;12.57;;
27666;SDS011;15074;50.940;5.282;2022-12-18T09:36:12;19.98;;;12.52;;
27666;SDS011;15074;50.940;5.282;2022-12-18T09:41:06;21.45;;;12.52;;
27666;SDS011;15074;50.940;5.282;2022-12-18T09:46:44;21.15;;;13.30;;
27666;SDS011;15074;50.940;5.282;2022-12-18T09:49:20;15.55;;;11.70;;
27666;SDS011;15074;50.940;5.282;2022-12-18T09:54:36;25.75;;;15.55;;
27666;SDS011;15074;50.940;5.282;2022-12-18T09:57:04;23.20;;;14.32;;
27666;SDS011;15074;50.940;5.282;2022-12-18T09:59:37;19.77;;;13.38;;
27666;SDS011;15074;50.940;5.282;2022-12-18T10:02:12;15.60;;;11.70;;
27666;SDS011;15074;50.940;5.282;2022-12-18T10:04:54;19.02;;;12.38;;
27666;SDS011;15074;50.940;5.282;2022-12-18T10:07:41;17.27;;;12.35;;
27666;SDS011;15074;50.940;5.282;2022-12-18T10:10:19;13.73;;;11.25;;
27666;SDS011;15074;50.940;5.282;2022-12-18T10:12:55;14.30;;;11.95;;
27666;SDS011;15074;50.940;5.282;2022-12-18T10:15:30;20.65;;;12.13;;
27666;SDS011;15074;50.940;5.282;2022-12-18T10:18:07;14.10;;;11.15;;
27666;SDS011;15074;50.940;5.282;2022-12-18T10:21:04;21.48;;;12.70;;
27666;SDS011;15074;50.940;5.282;2022-12-18T10:26:10;24.23;;;13.23;;
27666;SDS011;15074;50.940;5.282;2022-12-18T10:28:38;24.88;;;14.65;;
27666;SDS011;15074;50.940;5.282;2022-12-18T10:31:26;20.45;;;16.08;;
27666;SDS011;15074;50.940;5.282;2022-12-18T10:33:51;23.88;;;15.85;;
27666;SDS011;15074;50.940;5.282;2022-12-18T10:38:45;18.60;;;13.25;;
27666;SDS011;15074;50.940;5.282;2022-12-18T10:43:43;24.17;;;14.23;;
27666;SDS011;15074;50.940;5.282;2022-12-18T10:51:28;21.67;;;14.75;;
27666;SDS011;15074;50.940;5.282;2022-12-18T10:54:05;22.58;;;15.93;;
27666;SDS011;15074;50.940;5.282;2022-12-18T10:56:39;21.58;;;15.52;;
27666;SDS011;15074;50.940;5.282;2022-12-18T10:59:09;22.35;;;13.60;;
27666;SDS011;15074;50.940;5.282;2022-12-18T11:04:16;24.50;;;14.48;;
27666;SDS011;15074;50.940;5.282;2022-12-18T11:06:59;19.27;;;13.30;;
27666;SDS011;15074;50.940;5.282;2022-12-18T11:09:29;14.55;;;12.50;;
27666;SDS011;15074;50.940;5.282;2022-12-18T11:11:57;26.40;;;16.40;;
27666;SDS011;15074;50.940;5.282;2022-12-18T11:14:25;21.08;;;14.57;;
27666;SDS011;15074;50.940;5.282;2022-12-18T11:16:52;23.52;;;14.57;;
27666;SDS011;15074;50.940;5.282;2022-12-18T11:22:03;25.85;;;14.50;;
27666;SDS011;15074;50.940;5.282;2022-12-18T11:24:52;19.35;;;14.05;;
27666;SDS011;15074;50.940;5.282;2022-12-18T11:27:26;24.17;;;14.85;;
27666;SDS011;15074;50.940;5.282;2022-12-18T11:30:06;20.92;;;15.05;;
27666;SDS011;15074;50.940;5.282;2022-12-18T11:32:47;18.55;;;14.13;;
27666;SDS011;15074;50.940;5.282;2022-12-18T11:35:59;22.75;;;16.30;;
27666;SDS011;15074;50.940;5.282;2022-12-18T11:38:40;23.60;;;15.90;;
27666;SDS011;15074;50.940;5.282;2022-12-18T11:44:08;24.58;;;15.60;;
27666;SDS011;15074;50.940;5.282;2022-12-18T11:47:19;28.10;;;17.92;;
27666;SDS011;15074;50.940;5.282;2022-12-18T11:50:01;20.48;;;14.93;;
27666;SDS011;15074;50.940;5.282;2022-12-18T11:52:38;21.33;;;15.57;;
27666;SDS011;15074;50.940;5.282;2022-12-18T11:55:16;20.65;;;15.18;;
27666;SDS011;15074;50.940;5.282;2022-12-18T12:01:06;23.33;;;14.07;;
27666;SDS011;15074;50.940;5.282;2022-12-18T12:03:49;29.60;;;15.38;;
27666;SDS011;15074;50.940;5.282;2022-12-18T12:06:24;22.67;;;15.85;;
27666;SDS011;15074;50.940;5.282;2022-12-18T12:22:24;21.25;;;15.50;;
27666;SDS011;15074;50.940;5.282;2022-12-18T12:28:19;26.98;;;14.70;;
27666;SDS011;15074;50.940;5.282;2022-12-18T12:31:09;23.38;;;14.52;;
27666;SDS011;15074;50.940;5.282;2022-12-18T12:33:51;24.90;;;15.10;;
27666;SDS011;15074;50.940;5.282;2022-12-18T12:39:36;24.00;;;15.05;;
27666;SDS011;15074;50.940;5.282;2022-12-18T12:42:10;20.55;;;14.02;;
27666;SDS011;15074;50.940;5.282;2022-12-18T12:45:03;23.92;;;15.25;;
27666;SDS011;15074;50.940;5.282;2022-12-18T12:47:40;32.83;;;17.83;;
27666;SDS011;15074;50.940;5.282;2022-12-18T12:50:13;28.65;;;15.68;;
27666;SDS011;15074;50.940;5.282;2022-12-18T12:52:43;27.80;;;16.83;;
27666;SDS011;15074;50.940;5.282;2022-12-18T12:55:17;24.10;;;16.92;;
27666;SDS011;15074;50.940;5.282;2022-12-18T12:57:58;24.65;;;16.65;;
27666;SDS011;15074;50.940;5.282;2022-12-18T13:00:36;34.85;;;19.17;;
27666;SDS011;15074;50.940;5.282;2022-12-18T13:03:13;35.20;;;19.05;;
27666;SDS011;15074;50.940;5.282;2022-12-18T13:05:51;25.75;;;16.77;;
27666;SDS011;15074;50.940;5.282;2022-12-18T13:08:29;22.05;;;14.85;;
27666;SDS011;15074;50.940;5.282;2022-12-18T13:10:59;28.67;;;16.25;;
27666;SDS011;15074;50.940;5.282;2022-12-18T13:13:48;26.38;;;16.95;;
27666;SDS011;15074;50.940;5.282;2022-12-18T13:16:24;26.95;;;17.15;;
27666;SDS011;15074;50.940;5.282;2022-12-18T13:18:53;25.88;;;17.25;;
27666;SDS011;15074;50.940;5.282;2022-12-18T13:21:29;28.73;;;16.88;;
27666;SDS011;15074;50.940;5.282;2022-12-18T13:24:14;30.67;;;17.75;;
27666;SDS011;15074;50.940;5.282;2022-12-18T13:26:48;23.15;;;16.92;;
27666;SDS011;15074;50.940;5.282;2022-12-18T13:29:20;27.60;;;16.20;;
27666;SDS011;15074;50.940;5.282;2022-12-18T13:32:20;29.60;;;18.17;;
27666;SDS011;15074;50.940;5.282;2022-12-18T13:34:49;26.58;;;17.20;;
27666;SDS011;15074;50.940;5.282;2022-12-18T13:37:43;27.33;;;16.98;;
27666;SDS011;15074;50.940;5.282;2022-12-18T13:48:50;78.20;;;31.98;;
27666;SDS011;15074;50.940;5.282;2022-12-18T13:51:19;40.65;;;21.38;;
27666;SDS011;15074;50.940;5.282;2022-12-18T13:53:53;41.80;;;20.98;;
27666;SDS011;15074;50.940;5.282;2022-12-18T13:56:28;29.67;;;19.15;;
27666;SDS011;15074;50.940;5.282;2022-12-18T14:01:59;40.00;;;18.45;;
27666;SDS011;15074;50.940;5.282;2022-12-18T14:04:34;29.40;;;19.05;;
27666;SDS011;15074;50.940;5.282;2022-12-18T14:09:30;30.88;;;18.52;;
27666;SDS011;15074;50.940;5.282;2022-12-18T14:12:00;34.42;;;21.30;;
27666;SDS011;15074;50.940;5.282;2022-12-18T14:14:46;41.05;;;19.33;;
27666;SDS011;15074;50.940;5.282;2022-12-18T14:17:14;31.85;;;19.13;;
27666;SDS011;15074;50.940;5.282;2022-12-18T14:19:45;40.85;;;23.10;;
27666;SDS011;15074;50.940;5.282;2022-12-18T14:22:14;37.03;;;22.83;;
27666;SDS011;15074;50.940;5.282;2022-12-18T14:24:44;45.05;;;23.27;;
27666;SDS011;15074;50.940;5.282;2022-12-18T14:27:12;40.50;;;23.05;;
27666;SDS011;15074;50.940;5.282;2022-12-18T14:29:46;46.30;;;22.95;;
27666;SDS011;15074;50.940;5.282;2022-12-18T14:34:42;37.85;;;19.63;;
27666;SDS011;15074;50.940;5.282;2022-12-18T14:37:17;33.50;;;19.75;;
27666;SDS011;15074;50.940;5.282;2022-12-18T14:39:56;30.80;;;19.63;;
27666;SDS011;15074;50.940;5.282;2022-12-18T14:42:24;26.65;;;17.88;;
27666;SDS011;15074;50.940;5.282;2022-12-18T14:45:17;30.75;;;19.15;;
27666;SDS011;15074;50.940;5.282;2022-12-18T14:47:58;33.72;;;18.50;;
27666;SDS011;15074;50.940;5.282;2022-12-18T14:50:24;76.32;;;31.25;;
27666;SDS011;15074;50.940;5.282;2022-12-18T14:52:51;24.85;;;17.88;;
27666;SDS011;15074;50.940;5.282;2022-12-18T14:55:17;40.63;;;22.67;;
27666;SDS011;15074;50.940;5.282;2022-12-18T14:57:45;35.28;;;19.90;;
27666;SDS011;15074;50.940;5.282;2022-12-18T15:00:15;32.55;;;18.50;;
27666;SDS011;15074;50.940;5.282;2022-12-18T15:02:48;37.65;;;18.00;;
27666;SDS011;15074;50.940;5.282;2022-12-18T15:05:19;30.00;;;18.25;;
27666;SDS011;15074;50.940;5.282;2022-12-18T15:07:49;34.58;;;17.45;;
27666;SDS011;15074;50.940;5.282;2022-12-18T15:10:20;28.55;;;15.45;;
27666;SDS011;15074;50.940;5.282;2022-12-18T15:18:02;27.17;;;15.05;;
27666;SDS011;15074;50.940;5.282;2022-12-18T15:25:39;30.40;;;16.00;;
27666;SDS011;15074;50.940;5.282;2022-12-18T15:28:15;25.70;;;15.15;;
27666;SDS011;15074;50.940;5.282;2022-12-18T15:31:01;25.77;;;16.83;;
27666;SDS011;15074;50.940;5.282;2022-12-18T15:33:35;26.25;;;16.08;;
27666;SDS011;15074;50.940;5.282;2022-12-18T15:36:03;33.17;;;17.48;;
27666;SDS011;15074;50.940;5.282;2022-12-18T15:38:33;34.70;;;16.27;;
27666;SDS011;15074;50.940;5.282;2022-12-18T15:41:00;36.22;;;17.08;;
27666;SDS011;15074;50.940;5.282;2022-12-18T15:43:26;34.00;;;17.75;;
27666;SDS011;15074;50.940;5.282;2022-12-18T15:46:05;29.88;;;16.60;;
27666;SDS011;15074;50.940;5.282;2022-12-18T15:48:39;25.77;;;16.58;;
27666;SDS011;15074;50.940;5.282;2022-12-18T15:53:54;30.40;;;17.30;;
27666;SDS011;15074;50.940;5.282;2022-12-18T15:56:22;26.83;;;17.45;;
27666;SDS011;15074;50.940;5.282;2022-12-18T15:59:14;29.45;;;17.17;;
27666;SDS011;15074;50.940;5.282;2022-12-18T16:01:42;29.25;;;15.63;;
27666;SDS011;15074;50.940;5.282;2022-12-18T16:06:44;33.15;;;18.15;;
27666;SDS011;15074;50.940;5.282;2022-12-18T16:09:47;25.52;;;15.57;;
27666;SDS011;15074;50.940;5.282;2022-12-18T16:12:46;31.27;;;17.13;;
27666;SDS011;15074;50.940;5.282;2022-12-18T16:18:28;24.67;;;15.75;;
27666;SDS011;15074;50.940;5.282;2022-12-18T16:20:54;28.30;;;15.48;;
27666;SDS011;15074;50.940;5.282;2022-12-18T16:23:20;30.65;;;15.10;;
27666;SDS011;15074;50.940;5.282;2022-12-18T16:25:45;26.10;;;15.23;;
27666;SDS011;15074;50.940;5.282;2022-12-18T16:28:11;36.33;;;17.98;;
27666;SDS011;15074;50.940;5.282;2022-12-18T16:30:37;27.83;;;15.88;;
27666;SDS011;15074;50.940;5.282;2022-12-18T16:33:03;31.48;;;16.55;;
27666;SDS011;15074;50.940;5.282;2022-12-18T16:35:29;30.85;;;16.75;;
27666;SDS011;15074;50.940;5.282;2022-12-18T16:40:31;31.60;;;17.42;;
27666;SDS011;15074;50.940;5.282;2022-12-18T16:42:57;31.77;;;16.75;;
27666;SDS011;15074;50.940;5.282;2022-12-18T16:45:23;27.98;;;17.15;;
27666;SDS011;15074;50.940;5.282;2022-12-18T16:47:50;29.83;;;17.83;;